sensor_id;sensor_type;location;lat;lon;timestamp;pressure;altitude;pressure_sealevel;temperature;humidity
49063;BME280;34876;51.464;-0.150;2023-07-20T00:03:45;101570.62;;;23.53;45.32
49063;BME280;34876;51.464;-0.150;2023-07-20T00:06:15;101575.21;;;23.50;45.37
49063;BME280;34876;51.464;-0.150;2023-07-20T00:08:43;101578.75;;;23.50;45.40
49063;BME280;34876;51.464;-0.150;2023-07-20T00:11:17;101576.77;;;23.49;45.41
49063;BME280;34876;51.464;-0.150;2023-07-20T00:13:47;101576.48;;;23.47;45.41
49063;BME280;34876;51.464;-0.150;2023-07-20T00:16:16;101572.60;;;23.47;45.42
49063;BME280;34876;51.464;-0.150;2023-07-20T00:18:47;101573.33;;;23.48;45.41
49063;BME280;34876;51.464;-0.150;2023-07-20T00:21:18;101574.16;;;23.48;45.36
49063;BME280;34876;51.464;-0.150;2023-07-20T00:23:47;101573.58;;;23.48;45.36
49063;BME280;34876;51.464;-0.150;2023-07-20T00:26:16;101574.21;;;23.47;45.37
49063;BME280;34876;51.464;-0.150;2023-07-20T00:28:45;101569.77;;;23.47;45.36
49063;BME280;34876;51.464;-0.150;2023-07-20T00:31:15;101571.19;;;23.48;45.36
49063;BME280;34876;51.464;-0.150;2023-07-20T00:33:45;101571.05;;;23.48;45.33
49063;BME280;34876;51.464;-0.150;2023-07-20T00:36:14;101573.12;;;23.47;45.37
49063;BME280;34876;51.464;-0.150;2023-07-20T00:38:43;101572.01;;;23.47;45.36
49063;BME280;34876;51.464;-0.150;2023-07-20T00:41:12;101572.92;;;23.47;45.38
49063;BME280;34876;51.464;-0.150;2023-07-20T00:43:42;101573.07;;;23.47;45.36
49063;BME280;34876;51.464;-0.150;2023-07-20T00:46:11;101570.71;;;23.46;45.38
49063;BME280;34876;51.464;-0.150;2023-07-20T00:48:41;101568.07;;;23.47;45.38
49063;BME280;34876;51.464;-0.150;2023-07-20T00:51:12;101567.22;;;23.46;45.35
49063;BME280;34876;51.464;-0.150;2023-07-20T00:53:42;101569.97;;;23.45;45.38
49063;BME280;34876;51.464;-0.150;2023-07-20T00:56:12;101568.21;;;23.43;45.42
49063;BME280;34876;51.464;-0.150;2023-07-20T00:58:42;101566.70;;;23.45;45.37
49063;BME280;34876;51.464;-0.150;2023-07-20T01:01:11;101566.17;;;23.46;45.34
49063;BME280;34876;51.464;-0.150;2023-07-20T01:03:40;101563.49;;;23.47;45.33
49063;BME280;34876;51.464;-0.150;2023-07-20T01:06:15;101561.06;;;23.47;45.32
49063;BME280;34876;51.464;-0.150;2023-07-20T01:09:00;101555.96;;;23.47;45.30
49063;BME280;34876;51.464;-0.150;2023-07-20T01:11:38;101557.30;;;23.46;45.34
49063;BME280;34876;51.464;-0.150;2023-07-20T01:14:08;101556.52;;;23.45;45.35
49063;BME280;34876;51.464;-0.150;2023-07-20T01:16:38;101555.07;;;23.45;45.32
49063;BME280;34876;51.464;-0.150;2023-07-20T01:19:07;101553.47;;;23.47;45.27
49063;BME280;34876;51.464;-0.150;2023-07-20T01:21:41;101555.09;;;23.46;45.30
49063;BME280;34876;51.464;-0.150;2023-07-20T01:25:34;101558.49;;;23.46;45.27
49063;BME280;34876;51.464;-0.150;2023-07-20T01:28:34;101558.34;;;23.43;45.32
49063;BME280;34876;51.464;-0.150;2023-07-20T01:31:16;101560.04;;;23.45;45.27
49063;BME280;34876;51.464;-0.150;2023-07-20T01:33:47;101561.42;;;23.43;45.32
49063;BME280;34876;51.464;-0.150;2023-07-20T01:36:18;101558.92;;;23.44;45.29
49063;BME280;34876;51.464;-0.150;2023-07-20T01:38:48;101562.76;;;23.46;45.26
49063;BME280;34876;51.464;-0.150;2023-07-20T01:41:17;101560.87;;;23.44;45.26
49063;BME280;34876;51.464;-0.150;2023-07-20T01:43:47;101559.64;;;23.46;45.24
49063;BME280;34876;51.464;-0.150;2023-07-20T01:46:17;101562.21;;;23.46;45.24
49063;BME280;34876;51.464;-0.150;2023-07-20T01:48:47;101559.21;;;23.46;45.27
49063;BME280;34876;51.464;-0.150;2023-07-20T01:51:16;101560.43;;;23.47;45.25
49063;BME280;34876;51.464;-0.150;2023-07-20T01:53:46;101559.52;;;23.45;45.30
49063;BME280;34876;51.464;-0.150;2023-07-20T01:56:15;101559.83;;;23.47;45.25
49063;BME280;34876;51.464;-0.150;2023-07-20T01:58:45;101555.70;;;23.44;45.32
49063;BME280;34876;51.464;-0.150;2023-07-20T02:01:14;101555.83;;;23.45;45.32
49063;BME280;34876;51.464;-0.150;2023-07-20T02:03:44;101556.73;;;23.46;45.30
49063;BME280;34876;51.464;-0.150;2023-07-20T02:06:14;101554.19;;;23.47;45.29
49063;BME280;34876;51.464;-0.150;2023-07-20T02:08:43;101553.50;;;23.18;45.85
49063;BME280;34876;51.464;-0.150;2023-07-20T02:11:13;101552.57;;;23.40;45.43
49063;BME280;34876;51.464;-0.150;2023-07-20T02:13:43;101553.22;;;23.44;45.34
49063;BME280;34876;51.464;-0.150;2023-07-20T02:16:13;101550.63;;;23.46;45.32
49063;BME280;34876;51.464;-0.150;2023-07-20T02:18:43;101548.34;;;23.43;45.38
49063;BME280;34876;51.464;-0.150;2023-07-20T02:21:12;101546.09;;;23.46;45.35
49063;BME280;34876;51.464;-0.150;2023-07-20T02:23:41;101545.64;;;23.44;45.38
49063;BME280;34876;51.464;-0.150;2023-07-20T02:26:11;101543.98;;;23.44;45.41
49063;BME280;34876;51.464;-0.150;2023-07-20T02:28:40;101543.81;;;23.44;45.42
49063;BME280;34876;51.464;-0.150;2023-07-20T02:31:09;101542.72;;;23.45;45.37
49063;BME280;34876;51.464;-0.150;2023-07-20T02:33:38;101542.64;;;23.44;45.35
49063;BME280;34876;51.464;-0.150;2023-07-20T02:36:07;101542.05;;;23.44;45.36
49063;BME280;34876;51.464;-0.150;2023-07-20T02:38:36;101546.06;;;23.46;45.34
49063;BME280;34876;51.464;-0.150;2023-07-20T02:41:05;101549.56;;;23.45;45.33
49063;BME280;34876;51.464;-0.150;2023-07-20T02:43:34;101553.41;;;23.44;45.36
49063;BME280;34876;51.464;-0.150;2023-07-20T02:46:03;101554.86;;;23.44;45.36
49063;BME280;34876;51.464;-0.150;2023-07-20T02:48:32;101552.46;;;23.45;45.32
49063;BME280;34876;51.464;-0.150;2023-07-20T02:51:02;101553.93;;;23.44;45.31
49063;BME280;34876;51.464;-0.150;2023-07-20T02:53:31;101552.35;;;23.44;45.30
49063;BME280;34876;51.464;-0.150;2023-07-20T02:56:00;101554.20;;;23.44;45.29
49063;BME280;34876;51.464;-0.150;2023-07-20T02:58:30;101557.53;;;23.44;45.31
49063;BME280;34876;51.464;-0.150;2023-07-20T03:00:59;101556.43;;;23.45;45.26
49063;BME280;34876;51.464;-0.150;2023-07-20T03:03:28;101555.98;;;23.43;45.30
49063;BME280;34876;51.464;-0.150;2023-07-20T03:05:57;101553.43;;;23.44;45.25
49063;BME280;34876;51.464;-0.150;2023-07-20T03:08:27;101551.89;;;23.44;45.24
49063;BME280;34876;51.464;-0.150;2023-07-20T03:10:56;101551.09;;;23.42;45.28
49063;BME280;34876;51.464;-0.150;2023-07-20T03:13:25;101550.75;;;23.43;45.24
49063;BME280;34876;51.464;-0.150;2023-07-20T03:15:55;101551.36;;;23.43;45.23
49063;BME280;34876;51.464;-0.150;2023-07-20T03:18:24;101550.14;;;23.43;45.21
49063;BME280;34876;51.464;-0.150;2023-07-20T03:20:53;101547.76;;;23.42;45.22
49063;BME280;34876;51.464;-0.150;2023-07-20T03:23:22;101548.78;;;23.40;45.26
49063;BME280;34876;51.464;-0.150;2023-07-20T03:25:51;101550.17;;;23.38;45.29
49063;BME280;34876;51.464;-0.150;2023-07-20T03:28:20;101548.70;;;23.41;45.23
49063;BME280;34876;51.464;-0.150;2023-07-20T03:30:53;101548.74;;;23.40;45.26
49063;BME280;34876;51.464;-0.150;2023-07-20T03:33:24;101551.88;;;23.39;45.26
49063;BME280;34876;51.464;-0.150;2023-07-20T03:35:54;101554.84;;;23.40;45.22
49063;BME280;34876;51.464;-0.150;2023-07-20T03:38:24;101558.70;;;23.39;45.26
49063;BME280;34876;51.464;-0.150;2023-07-20T03:40:53;101556.19;;;23.40;45.20
49063;BME280;34876;51.464;-0.150;2023-07-20T03:43:23;101556.39;;;23.39;45.16
49063;BME280;34876;51.464;-0.150;2023-07-20T03:45:53;101552.06;;;23.39;45.16
49063;BME280;34876;51.464;-0.150;2023-07-20T03:48:24;101552.01;;;23.38;45.17
49063;BME280;34876;51.464;-0.150;2023-07-20T03:50:54;101552.56;;;23.39;45.11
49063;BME280;34876;51.464;-0.150;2023-07-20T03:53:23;101552.54;;;23.37;45.21
49063;BME280;34876;51.464;-0.150;2023-07-20T03:55:54;101551.47;;;23.37;45.16
49063;BME280;34876;51.464;-0.150;2023-07-20T03:58:25;101547.74;;;23.35;45.17
49063;BME280;34876;51.464;-0.150;2023-07-20T04:00:55;101548.34;;;23.36;45.12
49063;BME280;34876;51.464;-0.150;2023-07-20T04:03:24;101549.37;;;23.36;45.12
49063;BME280;34876;51.464;-0.150;2023-07-20T04:05:53;101551.75;;;23.35;45.16
49063;BME280;34876;51.464;-0.150;2023-07-20T04:08:23;101552.42;;;23.35;45.11
49063;BME280;34876;51.464;-0.150;2023-07-20T04:10:53;101551.75;;;23.34;45.13
49063;BME280;34876;51.464;-0.150;2023-07-20T04:13:22;101551.07;;;23.33;45.12
49063;BME280;34876;51.464;-0.150;2023-07-20T04:15:51;101555.44;;;23.33;45.11
49063;BME280;34876;51.464;-0.150;2023-07-20T04:18:19;101552.91;;;23.32;45.13
49063;BME280;34876;51.464;-0.150;2023-07-20T04:20:49;101553.96;;;23.34;45.07
49063;BME280;34876;51.464;-0.150;2023-07-20T04:23:18;101553.03;;;23.33;45.07
49063;BME280;34876;51.464;-0.150;2023-07-20T04:25:47;101551.50;;;23.32;45.10
49063;BME280;34876;51.464;-0.150;2023-07-20T04:28:16;101552.75;;;23.30;45.11
49063;BME280;34876;51.464;-0.150;2023-07-20T04:30:48;101553.24;;;23.30;45.11
49063;BME280;34876;51.464;-0.150;2023-07-20T04:33:17;101555.24;;;23.32;45.01
49063;BME280;34876;51.464;-0.150;2023-07-20T04:35:48;101552.66;;;23.32;44.99
49063;BME280;34876;51.464;-0.150;2023-07-20T04:38:18;101555.99;;;23.32;45.00
49063;BME280;34876;51.464;-0.150;2023-07-20T04:40:49;101554.46;;;23.32;44.97
49063;BME280;34876;51.464;-0.150;2023-07-20T04:43:18;101552.49;;;23.33;44.90
49063;BME280;34876;51.464;-0.150;2023-07-20T04:45:47;101547.88;;;23.31;44.97
49063;BME280;34876;51.464;-0.150;2023-07-20T04:48:17;101546.02;;;23.30;44.94
49063;BME280;34876;51.464;-0.150;2023-07-20T04:50:46;101548.27;;;23.29;44.99
49063;BME280;34876;51.464;-0.150;2023-07-20T04:53:15;101549.71;;;23.28;44.96
49063;BME280;34876;51.464;-0.150;2023-07-20T04:55:48;101553.26;;;23.31;44.86
49063;BME280;34876;51.464;-0.150;2023-07-20T04:58:18;101555.29;;;23.30;44.90
49063;BME280;34876;51.464;-0.150;2023-07-20T05:00:48;101555.39;;;23.33;44.80
49063;BME280;34876;51.464;-0.150;2023-07-20T05:03:17;101558.33;;;23.33;44.80
49063;BME280;34876;51.464;-0.150;2023-07-20T05:05:47;101561.39;;;23.32;44.79
49063;BME280;34876;51.464;-0.150;2023-07-20T05:08:16;101562.71;;;23.36;44.72
49063;BME280;34876;51.464;-0.150;2023-07-20T05:10:45;101556.07;;;23.34;44.71
49063;BME280;34876;51.464;-0.150;2023-07-20T05:13:14;101553.42;;;23.36;44.65
49063;BME280;34876;51.464;-0.150;2023-07-20T05:15:43;101553.80;;;23.38;44.61
49063;BME280;34876;51.464;-0.150;2023-07-20T05:18:12;101554.48;;;23.36;44.61
49063;BME280;34876;51.464;-0.150;2023-07-20T05:20:41;101559.09;;;23.33;44.67
49063;BME280;34876;51.464;-0.150;2023-07-20T05:23:11;101559.06;;;23.33;44.67
49063;BME280;34876;51.464;-0.150;2023-07-20T05:25:41;101557.29;;;23.32;44.64
49063;BME280;34876;51.464;-0.150;2023-07-20T05:28:10;101558.43;;;23.36;44.57
49063;BME280;34876;51.464;-0.150;2023-07-20T05:30:40;101558.06;;;23.38;44.48
49063;BME280;34876;51.464;-0.150;2023-07-20T05:33:09;101560.64;;;23.40;44.49
49063;BME280;34876;51.464;-0.150;2023-07-20T05:35:38;101559.59;;;23.42;44.41
49063;BME280;34876;51.464;-0.150;2023-07-20T05:38:07;101557.96;;;23.42;44.36
49063;BME280;34876;51.464;-0.150;2023-07-20T05:40:37;101557.65;;;23.42;44.33
49063;BME280;34876;51.464;-0.150;2023-07-20T05:43:06;101555.46;;;23.41;44.34
49063;BME280;34876;51.464;-0.150;2023-07-20T05:45:35;101556.39;;;23.40;44.36
49063;BME280;34876;51.464;-0.150;2023-07-20T05:48:04;101556.74;;;23.41;44.33
49063;BME280;34876;51.464;-0.150;2023-07-20T05:50:34;101554.70;;;23.42;44.31
49063;BME280;34876;51.464;-0.150;2023-07-20T05:53:03;101556.03;;;23.42;44.28
49063;BME280;34876;51.464;-0.150;2023-07-20T05:55:32;101559.05;;;23.46;44.18
49063;BME280;34876;51.464;-0.150;2023-07-20T05:58:01;101556.67;;;23.44;44.21
49063;BME280;34876;51.464;-0.150;2023-07-20T06:00:29;101560.72;;;23.47;44.13
49063;BME280;34876;51.464;-0.150;2023-07-20T06:02:58;101560.41;;;23.33;44.26
49063;BME280;34876;51.464;-0.150;2023-07-20T06:05:27;101559.80;;;23.41;44.25
49063;BME280;34876;51.464;-0.150;2023-07-20T06:07:56;101560.46;;;23.43;44.16
49063;BME280;34876;51.464;-0.150;2023-07-20T06:10:25;101563.74;;;23.44;44.12
49063;BME280;34876;51.464;-0.150;2023-07-20T06:12:53;101562.17;;;23.43;44.12
49063;BME280;34876;51.464;-0.150;2023-07-20T06:15:25;101561.50;;;23.41;44.18
49063;BME280;34876;51.464;-0.150;2023-07-20T06:17:55;101566.61;;;23.39;44.20
49063;BME280;34876;51.464;-0.150;2023-07-20T06:20:24;101566.29;;;23.41;44.15
49063;BME280;34876;51.464;-0.150;2023-07-20T06:22:54;101566.23;;;23.40;44.12
49063;BME280;34876;51.464;-0.150;2023-07-20T06:25:22;101567.75;;;23.46;43.99
49063;BME280;34876;51.464;-0.150;2023-07-20T06:27:51;101567.09;;;23.41;44.12
49063;BME280;34876;51.464;-0.150;2023-07-20T06:30:20;101568.67;;;23.41;44.10
49063;BME280;34876;51.464;-0.150;2023-07-20T06:32:49;101570.58;;;23.39;44.10
49063;BME280;34876;51.464;-0.150;2023-07-20T06:35:18;101568.53;;;23.35;44.11
49063;BME280;34876;51.464;-0.150;2023-07-20T06:37:47;101571.40;;;23.49;43.89
49063;BME280;34876;51.464;-0.150;2023-07-20T06:40:16;101568.54;;;23.58;43.68
49063;BME280;34876;51.464;-0.150;2023-07-20T06:42:45;101569.68;;;23.55;43.73
49063;BME280;34876;51.464;-0.150;2023-07-20T06:45:14;101566.49;;;23.61;43.58
49063;BME280;34876;51.464;-0.150;2023-07-20T06:47:44;101572.72;;;23.62;43.53
49063;BME280;34876;51.464;-0.150;2023-07-20T06:50:13;101573.30;;;23.61;43.47
49063;BME280;34876;51.464;-0.150;2023-07-20T06:52:43;101576.65;;;23.53;43.76
49063;BME280;34876;51.464;-0.150;2023-07-20T06:55:12;101573.26;;;23.53;43.76
49063;BME280;34876;51.464;-0.150;2023-07-20T06:57:41;101572.43;;;23.58;43.64
49063;BME280;34876;51.464;-0.150;2023-07-20T07:00:11;101571.61;;;23.62;43.52
49063;BME280;34876;51.464;-0.150;2023-07-20T07:02:40;101569.28;;;23.69;43.27
49063;BME280;34876;51.464;-0.150;2023-07-20T07:05:09;101569.89;;;23.69;43.30
49063;BME280;34876;51.464;-0.150;2023-07-20T07:07:38;101575.51;;;23.54;43.60
49063;BME280;34876;51.464;-0.150;2023-07-20T07:10:07;101572.43;;;23.66;43.36
49063;BME280;34876;51.464;-0.150;2023-07-20T07:12:37;101572.14;;;23.73;43.20
49063;BME280;34876;51.464;-0.150;2023-07-20T07:15:07;101571.39;;;23.66;43.34
49063;BME280;34876;51.464;-0.150;2023-07-20T07:17:36;101574.80;;;23.53;43.61
49063;BME280;34876;51.464;-0.150;2023-07-20T07:20:06;101570.96;;;23.54;43.65
49063;BME280;34876;51.464;-0.150;2023-07-20T07:22:35;101570.29;;;23.53;43.67
49063;BME280;34876;51.464;-0.150;2023-07-20T07:25:06;101564.71;;;23.64;43.37
49063;BME280;34876;51.464;-0.150;2023-07-20T07:27:35;101564.17;;;23.66;43.30
49063;BME280;34876;51.464;-0.150;2023-07-20T07:30:05;101564.10;;;23.73;43.19
49063;BME280;34876;51.464;-0.150;2023-07-20T07:32:34;101563.01;;;23.78;43.03
49063;BME280;34876;51.464;-0.150;2023-07-20T07:35:03;101565.59;;;23.65;43.29
49063;BME280;34876;51.464;-0.150;2023-07-20T07:37:32;101564.93;;;23.74;43.09
49063;BME280;34876;51.464;-0.150;2023-07-20T07:40:02;101562.93;;;23.78;43.01
49063;BME280;34876;51.464;-0.150;2023-07-20T07:42:31;101561.27;;;23.75;43.07
49063;BME280;34876;51.464;-0.150;2023-07-20T07:45:00;101560.25;;;23.77;43.02
49063;BME280;34876;51.464;-0.150;2023-07-20T07:47:29;101561.86;;;23.82;42.90
49063;BME280;34876;51.464;-0.150;2023-07-20T07:49:58;101559.54;;;23.81;42.90
49063;BME280;34876;51.464;-0.150;2023-07-20T07:52:27;101558.57;;;23.82;42.90
49063;BME280;34876;51.464;-0.150;2023-07-20T07:54:56;101555.90;;;23.79;42.98
49063;BME280;34876;51.464;-0.150;2023-07-20T07:57:25;101551.47;;;23.75;43.03
49063;BME280;34876;51.464;-0.150;2023-07-20T07:59:53;101553.37;;;23.82;42.88
49063;BME280;34876;51.464;-0.150;2023-07-20T08:02:22;101553.12;;;23.78;42.92
49063;BME280;34876;51.464;-0.150;2023-07-20T08:04:51;101551.71;;;23.84;42.84
49063;BME280;34876;51.464;-0.150;2023-07-20T08:07:28;101551.00;;;23.88;42.77
49063;BME280;34876;51.464;-0.150;2023-07-20T08:10:01;101549.59;;;23.89;42.73
49063;BME280;34876;51.464;-0.150;2023-07-20T08:12:33;101545.04;;;24.63;41.06
49063;BME280;34876;51.464;-0.150;2023-07-20T08:15:02;101545.99;;;24.90;40.32
49063;BME280;34876;51.464;-0.150;2023-07-20T08:17:31;101545.72;;;24.39;41.39
49063;BME280;34876;51.464;-0.150;2023-07-20T08:20:01;101545.28;;;24.10;42.05
49063;BME280;34876;51.464;-0.150;2023-07-20T08:22:30;101545.33;;;24.18;41.97
49063;BME280;34876;51.464;-0.150;2023-07-20T08:24:59;101540.19;;;24.12;42.01
49063;BME280;34876;51.464;-0.150;2023-07-20T08:27:28;101542.15;;;23.98;41.91
49063;BME280;34876;51.464;-0.150;2023-07-20T08:29:57;101540.03;;;23.95;42.31
49063;BME280;34876;51.464;-0.150;2023-07-20T08:32:26;101540.41;;;23.95;41.44
49063;BME280;34876;51.464;-0.150;2023-07-20T08:34:55;101539.25;;;24.04;40.78
49063;BME280;34876;51.464;-0.150;2023-07-20T08:37:24;101537.77;;;24.12;42.06
49063;BME280;34876;51.464;-0.150;2023-07-20T08:39:54;101540.42;;;23.95;42.19
49063;BME280;34876;51.464;-0.150;2023-07-20T08:42:25;101540.89;;;23.90;40.57
49063;BME280;34876;51.464;-0.150;2023-07-20T08:44:55;101543.21;;;24.03;40.81
49063;BME280;34876;51.464;-0.150;2023-07-20T08:47:25;101542.58;;;23.79;42.51
49063;BME280;34876;51.464;-0.150;2023-07-20T08:49:55;101539.10;;;24.06;40.49
49063;BME280;34876;51.464;-0.150;2023-07-20T08:52:24;101541.21;;;23.96;42.38
49063;BME280;34876;51.464;-0.150;2023-07-20T08:54:54;101535.99;;;24.12;41.90
49063;BME280;34876;51.464;-0.150;2023-07-20T08:57:24;101541.44;;;24.29;41.55
49063;BME280;34876;51.464;-0.150;2023-07-20T08:59:54;101540.01;;;24.04;36.59
49063;BME280;34876;51.464;-0.150;2023-07-20T09:02:25;101538.48;;;24.12;41.99
49063;BME280;34876;51.464;-0.150;2023-07-20T09:04:55;101535.97;;;24.14;41.97
49063;BME280;34876;51.464;-0.150;2023-07-20T09:07:25;101536.18;;;24.00;42.16
49063;BME280;34876;51.464;-0.150;2023-07-20T09:09:57;101535.04;;;24.04;42.17
49063;BME280;34876;51.464;-0.150;2023-07-20T09:12:26;101533.91;;;24.14;41.90
49063;BME280;34876;51.464;-0.150;2023-07-20T09:14:57;101530.42;;;24.07;42.01
49063;BME280;34876;51.464;-0.150;2023-07-20T09:17:27;101532.58;;;24.08;42.00
49063;BME280;34876;51.464;-0.150;2023-07-20T09:19:56;101532.64;;;24.23;41.69
49063;BME280;34876;51.464;-0.150;2023-07-20T09:22:30;101533.08;;;24.12;41.89
49063;BME280;34876;51.464;-0.150;2023-07-20T09:25:00;101531.67;;;24.00;41.61
49063;BME280;34876;51.464;-0.150;2023-07-20T09:27:35;101534.73;;;23.88;41.45
49063;BME280;34876;51.464;-0.150;2023-07-20T09:30:06;101534.49;;;23.88;41.96
49063;BME280;34876;51.464;-0.150;2023-07-20T09:32:39;101527.06;;;24.05;42.08
49063;BME280;34876;51.464;-0.150;2023-07-20T09:35:13;101527.65;;;24.10;41.63
49063;BME280;34876;51.464;-0.150;2023-07-20T09:37:47;101524.76;;;24.09;41.82
49063;BME280;34876;51.464;-0.150;2023-07-20T09:40:16;101522.63;;;24.06;42.00
49063;BME280;34876;51.464;-0.150;2023-07-20T09:42:46;101523.32;;;24.19;41.74
49063;BME280;34876;51.464;-0.150;2023-07-20T09:45:17;101521.77;;;24.22;41.71
49063;BME280;34876;51.464;-0.150;2023-07-20T09:47:46;101515.09;;;24.37;41.34
49063;BME280;34876;51.464;-0.150;2023-07-20T09:50:16;101518.72;;;24.75;40.51
49063;BME280;34876;51.464;-0.150;2023-07-20T09:52:47;101521.84;;;24.91;39.62
49063;BME280;34876;51.464;-0.150;2023-07-20T09:55:16;101520.74;;;24.73;40.27
49063;BME280;34876;51.464;-0.150;2023-07-20T09:57:45;101517.86;;;24.50;40.57
49063;BME280;34876;51.464;-0.150;2023-07-20T10:00:16;101512.02;;;24.49;40.74
49063;BME280;34876;51.464;-0.150;2023-07-20T10:02:46;101512.02;;;24.78;40.05
49063;BME280;34876;51.464;-0.150;2023-07-20T10:05:18;101508.08;;;25.02;39.76
49063;BME280;34876;51.464;-0.150;2023-07-20T10:07:50;101496.07;;;25.61;36.16
49063;BME280;34876;51.464;-0.150;2023-07-20T10:10:20;101493.43;;;25.34;38.24
49063;BME280;34876;51.464;-0.150;2023-07-20T10:12:49;101499.02;;;24.82;39.87
49063;BME280;34876;51.464;-0.150;2023-07-20T10:15:23;101499.34;;;24.44;38.18
49063;BME280;34876;51.464;-0.150;2023-07-20T10:17:59;101495.20;;;24.33;37.39
49063;BME280;34876;51.464;-0.150;2023-07-20T10:20:33;101498.21;;;24.26;35.71
49063;BME280;34876;51.464;-0.150;2023-07-20T10:23:05;101500.49;;;24.27;41.39
49063;BME280;34876;51.464;-0.150;2023-07-20T10:25:35;101496.97;;;24.38;40.96
49063;BME280;34876;51.464;-0.150;2023-07-20T10:28:05;101496.58;;;24.55;37.42
49063;BME280;34876;51.464;-0.150;2023-07-20T10:30:36;101491.67;;;25.02;39.53
49063;BME280;34876;51.464;-0.150;2023-07-20T10:33:07;101484.02;;;25.28;39.26
49063;BME280;34876;51.464;-0.150;2023-07-20T10:35:51;101477.20;;;25.44;38.52
49063;BME280;34876;51.464;-0.150;2023-07-20T10:38:20;101477.82;;;25.36;34.48
49063;BME280;34876;51.464;-0.150;2023-07-20T10:41:16;101476.05;;;25.37;37.75
49063;BME280;34876;51.464;-0.150;2023-07-20T10:43:47;101480.58;;;24.96;34.81
49063;BME280;34876;51.464;-0.150;2023-07-20T10:46:34;101482.01;;;24.73;36.60
49063;BME280;34876;51.464;-0.150;2023-07-20T10:49:05;101480.83;;;24.78;40.08
49063;BME280;34876;51.464;-0.150;2023-07-20T10:51:39;101474.30;;;25.06;32.62
49063;BME280;34876;51.464;-0.150;2023-07-20T10:54:33;101473.67;;;25.26;35.37
49063;BME280;34876;51.464;-0.150;2023-07-20T10:57:24;101473.28;;;25.30;32.19
49063;BME280;34876;51.464;-0.150;2023-07-20T11:00:07;101472.59;;;25.14;32.64
49063;BME280;34876;51.464;-0.150;2023-07-20T11:02:46;101471.82;;;25.25;39.00
49063;BME280;34876;51.464;-0.150;2023-07-20T11:05:47;101467.71;;;25.28;36.25
49063;BME280;34876;51.464;-0.150;2023-07-20T11:08:38;101467.70;;;25.23;34.96
49063;BME280;34876;51.464;-0.150;2023-07-20T11:11:25;101462.85;;;25.48;38.62
49063;BME280;34876;51.464;-0.150;2023-07-20T11:13:58;101455.25;;;25.64;37.60
49063;BME280;34876;51.464;-0.150;2023-07-20T11:16:36;101459.46;;;25.55;38.42
49063;BME280;34876;51.464;-0.150;2023-07-20T11:19:13;101459.98;;;25.54;38.36
49063;BME280;34876;51.464;-0.150;2023-07-20T11:21:46;101460.94;;;25.49;32.07
49063;BME280;34876;51.464;-0.150;2023-07-20T11:24:16;101461.99;;;25.45;31.56
49063;BME280;34876;51.464;-0.150;2023-07-20T11:26:46;101457.80;;;25.04;34.73
49063;BME280;34876;51.464;-0.150;2023-07-20T11:29:18;101463.86;;;24.90;39.55
49063;BME280;34876;51.464;-0.150;2023-07-20T11:31:49;101463.36;;;24.91;33.89
49063;BME280;34876;51.464;-0.150;2023-07-20T11:34:20;101453.37;;;24.94;31.68
49063;BME280;34876;51.464;-0.150;2023-07-20T11:36:50;101455.44;;;24.94;39.79
49063;BME280;34876;51.464;-0.150;2023-07-20T11:39:21;101451.93;;;25.00;38.54
49063;BME280;34876;51.464;-0.150;2023-07-20T11:41:53;101449.56;;;25.12;32.30
49063;BME280;34876;51.464;-0.150;2023-07-20T11:44:24;101447.47;;;25.20;38.79
49063;BME280;34876;51.464;-0.150;2023-07-20T11:47:04;101444.71;;;25.01;32.29
49063;BME280;34876;51.464;-0.150;2023-07-20T11:49:35;101443.00;;;24.96;39.11
49063;BME280;34876;51.464;-0.150;2023-07-20T11:52:07;101442.56;;;25.14;38.87
49063;BME280;34876;51.464;-0.150;2023-07-20T11:54:38;101436.62;;;25.27;35.04
49063;BME280;34876;51.464;-0.150;2023-07-20T11:57:16;101439.34;;;25.13;31.66
49063;BME280;34876;51.464;-0.150;2023-07-20T11:59:53;101443.05;;;24.96;36.64
49063;BME280;34876;51.464;-0.150;2023-07-20T12:02:23;101441.50;;;25.12;37.82
49063;BME280;34876;51.464;-0.150;2023-07-20T12:04:52;101436.67;;;25.12;38.58
49063;BME280;34876;51.464;-0.150;2023-07-20T12:07:25;101432.09;;;24.93;33.31
49063;BME280;34876;51.464;-0.150;2023-07-20T12:10:11;101438.87;;;24.77;36.07
49063;BME280;34876;51.464;-0.150;2023-07-20T12:12:43;101429.73;;;24.79;39.00
49063;BME280;34876;51.464;-0.150;2023-07-20T12:15:14;101430.97;;;24.71;38.32
49063;BME280;34876;51.464;-0.150;2023-07-20T12:17:45;101425.52;;;24.66;40.27
49063;BME280;34876;51.464;-0.150;2023-07-20T12:20:24;101422.79;;;24.51;36.44
49063;BME280;34876;51.464;-0.150;2023-07-20T12:22:55;101423.69;;;24.13;41.56
49063;BME280;34876;51.464;-0.150;2023-07-20T12:25:36;101424.37;;;24.29;36.19
49063;BME280;34876;51.464;-0.150;2023-07-20T12:28:08;101424.99;;;24.54;34.66
49063;BME280;34876;51.464;-0.150;2023-07-20T12:30:39;101422.18;;;24.30;39.89
49063;BME280;34876;51.464;-0.150;2023-07-20T12:33:08;101417.53;;;24.61;40.26
49063;BME280;34876;51.464;-0.150;2023-07-20T12:35:38;101418.73;;;24.56;31.85
49063;BME280;34876;51.464;-0.150;2023-07-20T12:38:07;101412.12;;;24.72;30.85
49063;BME280;34876;51.464;-0.150;2023-07-20T12:40:36;101407.51;;;25.00;39.61
49063;BME280;34876;51.464;-0.150;2023-07-20T12:43:05;101408.51;;;24.81;31.36
49063;BME280;34876;51.464;-0.150;2023-07-20T12:45:34;101405.45;;;24.77;40.44
49063;BME280;34876;51.464;-0.150;2023-07-20T12:48:04;101406.80;;;24.20;31.06
49063;BME280;34876;51.464;-0.150;2023-07-20T12:50:34;101403.86;;;24.38;37.30
49063;BME280;34876;51.464;-0.150;2023-07-20T12:53:04;101401.71;;;24.32;41.33
49063;BME280;34876;51.464;-0.150;2023-07-20T12:55:33;101390.20;;;24.61;30.74
49063;BME280;34876;51.464;-0.150;2023-07-20T12:58:03;101388.35;;;24.74;30.64
49063;BME280;34876;51.464;-0.150;2023-07-20T13:00:32;101387.00;;;24.86;29.89
49063;BME280;34876;51.464;-0.150;2023-07-20T13:03:02;101389.97;;;24.71;38.52